Time,TemperatureF,DewpointF,PressureIn,WindDirection,WindDirectionDegrees,WindSpeedMPH,WindSpeedGustMPH,Humidity,HourlyPrecipIn,Conditions,Clouds,dailyrainin,SoftwareType,DateUTC
2013-08-20 00:02:00,51.0,50.0,-100.00,NW,310,1.0,2.0,97,-99.99,,,-99.99,,2013-08-20 08:02:00,
2013-08-20 00:11:00,51.0,50.0,-100.00,NW,310,1.0,2.0,97,-99.99,,,-99.99,,2013-08-20 08:11:00,
2013-08-20 00:21:00,51.0,50.0,-100.00,South,175,0.0,1.0,97,-99.99,,,-99.99,,2013-08-20 08:21:00,
2013-08-20 00:31:00,51.0,50.0,-100.00,South,175,0.0,1.0,97,-99.99,,,-99.99,,2013-08-20 08:31:00,
2013-08-20 00:42:00,51.0,50.0,-100.00,South,175,0.0,1.0,97,-99.99,,,-99.99,,2013-08-20 08:42:00,
2013-08-20 00:52:00,51.0,50.0,-100.00,WNW,295,1.0,2.0,97,-99.99,,,-99.99,,2013-08-20 08:52:00,
2013-08-20 01:01:00,51.0,50.0,-100.00,WNW,295,1.0,2.0,97,-99.99,,,-99.99,,2013-08-20 09:01:00,
2013-08-20 01:11:00,51.0,50.0,-100.00,WNW,295,1.0,2.0,97,-99.99,,,-99.99,,2013-08-20 09:11:00,
2013-08-20 01:21:00,51.0,50.0,-100.00,ESE,120,1.0,2.0,97,-99.99,,,-99.99,,2013-08-20 09:21:00,
2013-08-20 01:33:00,51.0,50.0,-100.00,ESE,120,1.0,2.0,97,-99.99,,,-99.99,,2013-08-20 09:33:00,
2013-08-20 01:42:00,51.0,50.0,-100.00,ESE,120,1.0,2.0,97,-99.99,,,-99.99,,2013-08-20 09:42:00,
2013-08-20 01:53:00,51.0,51.0,-100.00,SE,140,2.0,3.0,97,-99.99,,,-99.99,,2013-08-20 09:53:00,
2013-08-20 02:00:00,51.0,50.0,-100.00,SW,235,0.0,4.0,97,-99.99,,,-99.99,,2013-08-20 10:00:00,
2013-08-20 02:03:00,51.0,51.0,-100.00,SE,140,2.0,3.0,97,-99.99,,,-99.99,,2013-08-20 10:03:00,
2013-08-20 02:12:00,51.0,51.0,-100.00,SE,140,2.0,3.0,97,-99.99,,,-99.99,,2013-08-20 10:12:00,
2013-08-20 02:22:00,51.0,50.0,-100.00,ENE,70,3.0,4.0,97,-99.99,,,-99.99,,2013-08-20 10:22:00,
2013-08-20 02:32:00,51.0,50.0,-100.00,ENE,70,3.0,4.0,97,-99.99,,,-99.99,,2013-08-20 10:32:00,
2013-08-20 02:42:00,51.0,50.0,-100.00,ENE,70,3.0,4.0,97,-99.99,,,-99.99,,2013-08-20 10:42:00,
2013-08-20 02:52:00,51.0,50.0,-100.00,SW,235,0.0,4.0,97,-99.99,,,-99.99,,2013-08-20 10:52:00,
2013-08-20 18:22:00,55.0,49.0,-100.00,SE,145,7.0,-999.0,79,-99.99,,,-99.99,,2013-08-21 02:22:00,
2013-08-20 18:32:00,55.0,49.0,-100.00,SE,145,7.0,-999.0,79,-99.99,,,-99.99,,2013-08-21 02:32:00,
2013-08-20 18:42:00,55.0,49.0,-100.00,SE,145,7.0,-999.0,79,-99.99,,,-99.99,,2013-08-21 02:42:00,
2013-08-20 18:52:00,55.0,49.0,-100.00,SE,130,9.0,-999.0,81,-99.99,,,-99.99,,2013-08-21 02:52:00,
2013-08-20 19:02:00,55.0,49.0,-100.00,SE,130,9.0,-999.0,81,-99.99,,,-99.99,,2013-08-21 03:02:00,
2013-08-20 19:12:00,55.0,49.0,-100.00,SE,130,9.0,-999.0,81,-99.99,,,-99.99,,2013-08-21 03:12:00,
2013-08-20 19:22:00,54.0,49.0,-100.00,SSE,155,11.0,14.0,82,-99.99,,,-99.99,,2013-08-21 03:22:00,
2013-08-20 19:35:00,54.0,49.0,-100.00,SSE,155,11.0,14.0,82,-99.99,,,-99.99,,2013-08-21 03:35:00,
2013-08-20 19:44:00,54.0,49.0,-100.00,SSE,155,11.0,14.0,82,-99.99,,,-99.99,,2013-08-21 03:44:00,
2013-08-20 19:55:00,54.0,49.0,-100.00,SSE,150,9.0,12.0,83,-99.99,,,-99.99,,2013-08-21 03:55:00,
2013-08-20 20:04:00,54.0,49.0,-100.00,SSE,150,9.0,12.0,83,-99.99,,,-99.99,,2013-08-21 04:04:00,
2013-08-20 20:13:00,54.0,49.0,-100.00,SSE,150,9.0,12.0,83,-99.99,,,-99.99,,2013-08-21 04:13:00,
2013-08-20 20:24:00,54.0,50.0,-100.00,SSE,150,9.0,12.0,84,-99.99,,,-99.99,,2013-08-21 04:24:00,
2013-08-20 20:33:00,54.0,50.0,-100.00,SSE,150,9.0,12.0,84,-99.99,,,-99.99,,2013-08-21 04:33:00,
2013-08-20 20:44:00,54.0,50.0,-100.00,SSE,150,9.0,12.0,84,-99.99,,,-99.99,,2013-08-21 04:44:00,
2013-08-20 20:54:00,54.0,50.0,-100.00,SSE,150,8.0,11.0,87,-99.99,,,-99.99,,2013-08-21 04:54:00,
2013-08-20 21:02:00,54.0,50.0,-100.00,SSE,150,8.0,11.0,87,-99.99,,,-99.99,,2013-08-21 05:02:00,
2013-08-20 21:12:00,54.0,50.0,-100.00,SSE,150,8.0,11.0,87,-99.99,,,-99.99,,2013-08-21 05:12:00,
2013-08-20 21:22:00,54.0,51.0,-100.00,SSE,150,7.0,9.0,90,-99.99,,,-99.99,,2013-08-21 05:22:00,
2013-08-20 21:33:00,54.0,51.0,-100.00,SSE,150,7.0,9.0,90,-99.99,,,-99.99,,2013-08-21 05:33:00,
2013-08-20 21:43:00,54.0,51.0,-100.00,SSE,150,7.0,9.0,90,-99.99,,,-99.99,,2013-08-21 05:43:00,
2013-08-20 21:52:00,53.0,51.0,-100.00,SSE,150,11.0,14.0,91,-99.99,,,-99.99,,2013-08-21 05:52:00,
2013-08-20 22:02:00,53.0,51.0,-100.00,SSE,150,11.0,14.0,91,-99.99,,,-99.99,,2013-08-21 06:02:00,
2013-08-20 22:12:00,53.0,51.0,-100.00,SSE,150,11.0,14.0,91,-99.99,,,-99.99,,2013-08-21 06:12:00,
2013-08-20 22:22:00,53.0,51.0,-100.00,SSE,160,8.0,9.0,92,-99.99,,,-99.99,,2013-08-21 06:22:00,
2013-08-20 22:32:00,53.0,51.0,-100.00,SSE,160,8.0,9.0,92,-99.99,,,-99.99,,2013-08-21 06:32:00,
2013-08-20 22:42:00,53.0,51.0,-100.00,SSE,160,8.0,9.0,92,-99.99,,,-99.99,,2013-08-21 06:42:00,
2013-08-20 22:52:00,53.0,51.0,-100.00,SSE,155,9.0,11.0,93,-99.99,,,-99.99,,2013-08-21 06:52:00,
2013-08-20 23:01:00,53.0,51.0,-100.00,SSE,155,9.0,11.0,93,-99.99,,,-99.99,,2013-08-21 07:01:00,
2013-08-20 23:11:00,53.0,51.0,-100.00,SSE,155,9.0,11.0,93,-99.99,,,-99.99,,2013-08-21 07:11:00,
2013-08-20 23:21:00,53.0,51.0,-100.00,SSE,150,9.0,13.0,93,-99.99,,,-99.99,,2013-08-21 07:21:00,
2013-08-20 23:32:00,53.0,51.0,-100.00,SSE,150,9.0,13.0,93,-99.99,,,-99.99,,2013-08-21 07:32:00,
2013-08-20 23:42:00,53.0,51.0,-100.00,SSE,150,9.0,13.0,93,-99.99,,,-99.99,,2013-08-21 07:42:00,
2013-08-20 23:53:00,54.0,51.0,-100.00,SSE,160,12.0,14.0,92,-99.99,,,-99.99,,2013-08-21 07:53:00,